createdAt,value
2023-04-12T05:44:47.441Z,56.35
2023-04-12T05:47:34.635Z,56.35
2023-04-12T05:50:21.067Z,57.73
2023-04-12T05:53:07.101Z,56.78
2023-04-12T05:55:54.376Z,56.30
2023-04-12T05:58:39.669Z,55.06
2023-04-12T06:01:35.152Z,54.30
2023-04-12T06:04:21.165Z,53.92
2023-04-12T06:07:10.316Z,53.01
2023-04-12T06:09:57.128Z,52.89
2023-04-12T06:12:46.348Z,51.97
2023-04-12T06:15:32.260Z,50.68
2023-04-12T06:18:19.954Z,49.69
2023-04-12T06:21:05.648Z,48.87
2023-04-12T06:23:51.216Z,48.01
2023-04-12T06:26:40.132Z,46.10
2023-04-12T06:29:26.218Z,46.44
2023-04-12T06:32:14.049Z,46.64
2023-04-12T06:34:59.408Z,45.91
2023-04-12T06:37:44.708Z,47.31
2023-04-12T06:40:34.667Z,48.34
2023-04-12T06:43:20.555Z,48.40
2023-04-12T06:46:06.751Z,47.84
2023-04-12T06:48:57.103Z,48.32
2023-04-12T06:51:45.292Z,48.92
2023-04-12T06:54:37.826Z,48.29
2023-04-12T06:57:24.050Z,48.16
2023-04-12T07:00:10.652Z,48.43
2023-04-12T07:02:58.527Z,47.22
2023-04-12T07:05:44.042Z,46.93
2023-04-12T07:08:30.220Z,46.73
2023-04-12T07:11:21.453Z,46.38
2023-04-12T07:14:07.428Z,45.41
2023-04-12T07:16:52.804Z,45.88
2023-04-12T07:19:53.029Z,46.46
2023-04-12T07:22:39.425Z,46.50
2023-04-12T07:25:26.709Z,46.79
2023-04-12T07:28:12.045Z,46.50
2023-04-12T07:30:58.491Z,45.96
2023-04-12T07:33:44.223Z,45.71
2023-04-12T07:36:29.801Z,44.34
2023-04-12T07:39:15.296Z,44.62
2023-04-12T07:42:04.883Z,43.50
2023-04-12T07:44:50.611Z,43.26
2023-04-12T07:47:37.834Z,43.55
2023-04-12T07:50:23.162Z,42.47
2023-04-12T07:53:23.018Z,42.85
2023-04-12T07:56:08.999Z,42.04
2023-04-12T07:58:57.546Z,40.36
2023-04-12T08:01:43.408Z,39.45
2023-04-12T08:04:29.151Z,40.34
2023-04-12T08:07:14.821Z,39.25
2023-04-12T08:10:06.061Z,38.29
2023-04-12T08:12:51.482Z,38.47
2023-04-12T08:15:37.932Z,38.08
2023-04-12T08:18:26.689Z,37.46
2023-04-12T08:21:13.189Z,36.10
2023-04-12T08:23:58.676Z,36.13
2023-04-12T08:26:44.459Z,36.38
2023-04-12T08:29:29.962Z,35.62
2023-04-12T08:32:16.700Z,35.96
2023-04-12T08:35:02.922Z,35.47
2023-04-12T08:37:50.025Z,33.29
2023-04-12T08:40:35.813Z,32.70
2023-04-12T08:43:22.834Z,32.23
2023-04-12T08:46:09.079Z,28.54
2023-04-12T08:48:54.918Z,20.92
2023-04-12T08:51:44.908Z,17.99
2023-04-12T08:54:31.659Z,16.16
2023-04-12T08:57:18.808Z,14.63
2023-04-12T09:00:05.390Z,14.39
2023-04-12T09:02:51.330Z,12.38
2023-04-12T09:05:37.079Z,12.74
2023-04-12T09:08:26.221Z,13.26
2023-04-12T09:11:29.198Z,14.31
2023-04-12T09:14:25.852Z,13.87
2023-04-12T09:17:34.007Z,11.96
2023-04-12T09:20:21.875Z,12.07
2023-04-12T09:23:20.142Z,12.51
2023-04-12T09:26:06.816Z,11.82
2023-04-12T09:28:52.195Z,11.30
2023-04-12T09:31:38.867Z,10.62
2023-04-12T09:34:31.588Z,9.97
2023-04-12T09:37:18.385Z,10.67
2023-04-12T09:40:06.225Z,9.81
2023-04-12T09:42:53.862Z,11.20
2023-04-12T09:45:42.017Z,10.09
2023-04-12T09:48:28.903Z,9.30
2023-04-12T09:51:24.530Z,9.40
2023-04-12T09:54:12.154Z,9.27
2023-04-12T09:56:57.680Z,9.38
2023-04-12T09:59:49.831Z,8.55
2023-04-12T10:02:35.856Z,8.33
2023-04-12T10:05:23.846Z,8.26
2023-04-12T10:08:12.057Z,8.48
2023-04-12T10:10:58.500Z,8.36
2023-04-12T10:13:44.572Z,7.82
2023-04-12T10:16:31.216Z,7.44
2023-04-12T10:19:17.626Z,8.26
2023-04-12T10:22:03.045Z,8.81
2023-04-12T10:24:49.370Z,9.02
2023-04-12T10:27:34.983Z,8.56
2023-04-12T10:30:25.947Z,8.69
2023-04-12T10:33:13.655Z,8.64
2023-04-12T10:36:03.699Z,8.74
2023-04-12T10:39:10.102Z,8.16
2023-04-12T10:42:24.945Z,9.88
2023-04-12T10:45:35.447Z,10.39
2023-04-12T10:48:38.186Z,8.05
2023-04-12T10:51:27.160Z,8.49
2023-04-12T10:54:17.239Z,7.48
2023-04-12T10:57:06.842Z,8.51
2023-04-12T11:00:03.242Z,8.79
2023-04-12T11:03:09.813Z,8.51
2023-04-12T11:06:19.645Z,8.16
2023-04-12T11:09:22.399Z,8.81
2023-04-12T11:12:10.966Z,8.87
2023-04-12T11:15:01.413Z,7.85
2023-04-12T11:17:54.588Z,7.96
2023-04-12T11:20:41.012Z,7.21
2023-04-12T11:23:27.248Z,7.73
2023-04-12T11:26:12.871Z,7.05
2023-04-12T11:29:02.079Z,7.63
2023-04-12T11:31:50.160Z,7.13
2023-04-12T11:34:37.028Z,6.90
2023-04-12T11:37:23.223Z,7.17
2023-04-12T11:40:09.644Z,7.41
2023-04-12T11:42:57.854Z,8.00
2023-04-12T11:45:44.846Z,7.40
2023-04-12T11:48:30.628Z,8.23
2023-04-12T11:51:31.617Z,8.45
2023-04-12T11:54:17.774Z,9.03
2023-04-12T11:57:05.038Z,8.54
2023-04-12T11:59:52.310Z,7.93
2023-04-12T12:02:46.088Z,7.61
2023-04-12T12:05:37.455Z,8.15
2023-04-12T12:08:24.485Z,7.76
2023-04-12T12:11:10.108Z,8.12
2023-04-12T12:13:56.938Z,7.80
2023-04-12T12:16:42.591Z,8.03
2023-04-12T12:19:29.454Z,9.90
2023-04-12T12:22:20.807Z,9.27
2023-04-12T12:25:06.955Z,9.12
2023-04-12T12:27:57.292Z,9.44
2023-04-12T12:30:42.663Z,10.04
2023-04-12T12:33:45.862Z,11.34
2023-04-12T12:36:34.179Z,10.73
